フランクフルト の空港の天気 - METARとTAF

フランクフルト国際空港 ( EDDF / FRA ) - ドイツ フランクフルト・アム・マイン
飛行場実況気象(Metar)
観測時間02/17 15:50 CET (02/17 14:50 UTC)
風向・風速西北西 2m/s
視程10km以上
天気現象
なし
気温15℃
湿度39%
気圧1022hPa
METAREDDF 171450Z 30004KT CAVOK 15/01 Q1022 NOSIG
過去の天気等 Google飛行場航空写真 Wunderground天気予報

過去48時間のMETAR

飛行場予報(TAF)
発表時間: 2/17 12:00 CET (2/17 11:00 UTC)
予報対象時間: 17日13時 CET ~ 18日19時 CET
風向・風速南西 2m/s
視程10km以上
なし
18日4時 CET ~ 18日9時 CET に 確率 30% で一時的に
視程1500m
天気現象散在した霧
TAF EDDF 171100Z 1712/1818 22004KT CAVOK
PROB30 TEMPO 1803/1808 1500 BCFG